Terminal Aerodrome Forecast
Issued by NWS

Home | Current Version | Previous Version | Text Only | Print | Product List | Glossary On
Versions: 1 2 3 4 5 6 7 8 9 10 11 12 13 14 15 16 17 18
000
FTUS43 KGRB 212300
TAFCWA
TAF
KCWA 212330Z 2200/2224 VRB03KT P6SM SKC
      TEMPO 2209/2212 3SM BR
     FM221300 15006KT P6SM SKC
      AMD LTD TO CLD VIS AND WIND 2203/2211=

USA.gov is the U.S. government's official web portal to all federal, state and local government web resources and services.